Time;durP1;ratioP1;P1;durP2;ratioP2;P2;SDS_P1;SDS_P2;PMS_P1;PMS_P2;Temp;Humidity;BMP_temperature;BMP_pressure;BME280_temperature;BME280_humidity;BME280_pressure;Samples;Min_cycle;Max_cycle;Signal;HPM_P1;HPM_P2
2021/08/20 00:00:43;;;;;;;26.60;14.70;;;;;;;;;;5091673;28;20099;-68
2021/08/20 00:03:09;;;;;;;23.10;12.73;;;;;;;;;;5091608;28;20024;-68
2021/08/20 00:05:35;;;;;;;27.17;13.65;;;;;;;;;;5091018;28;20063;-68
2021/08/20 00:08:01;;;;;;;21.77;12.45;;;;;;;;;;5089556;28;20016;-68
2021/08/20 00:10:27;;;;;;;22.92;13.43;;;;;;;;;;5091443;28;20312;-68
2021/08/20 00:12:53;;;;;;;25.63;14.93;;;;;;;;;;5091377;28;20103;-68
2021/08/20 00:15:19;;;;;;;23.48;14.13;;;;;;;;;;5090238;28;20052;-68
2021/08/20 00:17:45;;;;;;;21.80;12.85;;;;;;;;;;5088479;28;20036;-68
2021/08/20 00:20:11;;;;;;;22.25;12.55;;;;;;;;;;5091000;28;20028;-68
2021/08/20 00:22:37;;;;;;;26.88;13.98;;;;;;;;;;5091314;28;20027;-68
2021/08/20 00:25:04;;;;;;;21.02;12.15;;;;;;;;;;5091157;28;20028;-68
2021/08/20 00:27:30;;;;;;;20.95;12.93;;;;;;;;;;5088149;28;20038;-70
2021/08/20 00:29:56;;;;;;;22.83;14.05;;;;;;;;;;5091361;28;20103;-68
2021/08/20 00:32:22;;;;;;;24.98;12.10;;;;;;;;;;5090871;28;20377;-68
2021/08/20 00:34:48;;;;;;;26.92;13.60;;;;;;;;;;5091033;28;20020;-68
2021/08/20 00:37:14;;;;;;;27.30;13.45;;;;;;;;;;5088741;28;20043;-67
2021/08/20 00:39:41;;;;;;;21.92;11.50;;;;;;;;;;5111052;28;20024;-68
2021/08/20 00:42:07;;;;;;;20.48;9.43;;;;;;;;;;5111463;28;20032;-68
2021/08/20 00:44:33;;;;;;;17.02;7.75;;;;;;;;;;5111067;28;20019;-68
2021/08/20 00:46:59;;;;;;;12.52;6.78;;;;;;;;;;5109115;28;20391;-67
2021/08/20 00:49:26;;;;;;;12.18;5.97;;;;;;;;;;5111090;28;20408;-68
2021/08/20 00:51:52;;;;;;;9.80;4.80;;;;;;;;;;5111195;28;20016;-67
2021/08/20 00:54:19;;;;;;;11.85;4.32;;;;;;;;;;5103489;28;20035;-67
2021/08/20 00:56:46;;;;;;;13.90;3.47;;;;;;;;;;5088191;28;20027;-68
2021/08/20 00:59:13;;;;;;;12.80;4.68;;;;;;;;;;5090632;28;20154;-68
2021/08/20 01:01:39;;;;;;;10.52;3.22;;;;;;;;;;5090640;28;20032;-68
2021/08/20 01:04:06;;;;;;;11.15;3.72;;;;;;;;;;5090958;28;20096;-67
2021/08/20 01:06:32;;;;;;;12.23;3.00;;;;;;;;;;5087985;28;20017;-67
2021/08/20 01:08:58;;;;;;;9.18;2.38;;;;;;;;;;5090647;28;20023;-67
2021/08/20 01:11:24;;;;;;;8.77;2.38;;;;;;;;;;5090894;28;20031;-67
2021/08/20 01:13:50;;;;;;;8.23;2.10;;;;;;;;;;5090643;28;20024;-67
2021/08/20 01:16:17;;;;;;;7.78;2.60;;;;;;;;;;5087939;28;20035;-68
2021/08/20 01:18:43;;;;;;;11.23;3.53;;;;;;;;;;5090639;28;20020;-68
2021/08/20 01:21:13;;;;;;;10.23;3.03;;;;;;;;;;5090491;28;20032;-69
2021/08/20 01:23:40;;;;;;;12.65;2.47;;;;;;;;;;5090596;28;20029;-68
2021/08/20 01:26:06;;;;;;;6.45;2.13;;;;;;;;;;5087799;28;20304;-67
2021/08/20 01:28:32;;;;;;;7.80;2.20;;;;;;;;;;5090432;28;20024;-68
2021/08/20 01:30:59;;;;;;;9.68;2.40;;;;;;;;;;5090672;28;20123;-68
2021/08/20 01:33:25;;;;;;;7.95;2.70;;;;;;;;;;5090529;28;20041;-67
2021/08/20 01:35:52;;;;;;;11.60;2.67;;;;;;;;;;5087748;28;20051;-68
2021/08/20 01:38:18;;;;;;;10.45;2.20;;;;;;;;;;5100882;28;20032;-68
2021/08/20 01:40:44;;;;;;;10.32;2.22;;;;;;;;;;5110605;28;20023;-68
2021/08/20 01:43:10;;;;;;;7.63;1.98;;;;;;;;;;5111121;28;20115;-68
2021/08/20 01:45:37;;;;;;;11.50;2.22;;;;;;;;;;5112717;28;20024;-68
2021/08/20 01:48:03;;;;;;;8.23;2.10;;;;;;;;;;5112724;28;20388;-67
2021/08/20 01:50:29;;;;;;;10.90;1.67;;;;;;;;;;5114097;28;20020;-68
2021/08/20 01:52:55;;;;;;;6.35;1.52;;;;;;;;;;5114458;28;20461;-67
2021/08/20 01:55:21;;;;;;;4.85;1.52;;;;;;;;;;5096861;28;20512;-67
2021/08/20 01:57:48;;;;;;;9.43;1.92;;;;;;;;;;5091063;28;20024;-68
2021/08/20 02:00:14;;;;;;;10.65;2.25;;;;;;;;;;5093652;28;20436;-67
2021/08/20 02:02:40;;;;;;;9.05;1.95;;;;;;;;;;5093843;28;20420;-67
2021/08/20 02:05:06;;;;;;;8.13;1.83;;;;;;;;;;5093786;28;20328;-67
2021/08/20 02:07:35;;;;;;;8.52;2.65;;;;;;;;;;5091155;28;20016;-67
2021/08/20 02:10:01;;;;;;;5.00;1.58;;;;;;;;;;5093588;28;20024;-68
2021/08/20 02:12:27;;;;;;;6.25;2.20;;;;;;;;;;5093745;28;20027;-67
2021/08/20 02:14:53;;;;;;;9.88;1.98;;;;;;;;;;5093657;28;20081;-67
2021/08/20 02:17:20;;;;;;;4.90;1.70;;;;;;;;;;5090774;28;20024;-66
2021/08/20 02:19:46;;;;;;;10.23;1.48;;;;;;;;;;5093170;28;20020;-67
2021/08/20 02:22:12;;;;;;;8.18;2.05;;;;;;;;;;5093463;28;20021;-67
2021/08/20 02:24:38;;;;;;;6.88;1.58;;;;;;;;;;5093281;28;20031;-67
2021/08/20 02:27:04;;;;;;;9.13;1.50;;;;;;;;;;5072316;28;20020;-67
2021/08/20 02:29:30;;;;;;;9.50;1.67;;;;;;;;;;5093211;28;20422;-68
2021/08/20 02:31:56;;;;;;;8.10;2.38;;;;;;;;;;5093445;28;20024;-67
2021/08/20 02:34:22;;;;;;;8.52;1.52;;;;;;;;;;5093275;28;20077;-68
2021/08/20 02:36:48;;;;;;;8.63;1.85;;;;;;;;;;5090228;28;20131;-67
2021/08/20 02:39:14;;;;;;;7.40;2.40;;;;;;;;;;5111659;28;20039;-67
2021/08/20 02:41:40;;;;;;;6.57;1.88;;;;;;;;;;5113497;28;20023;-67
2021/08/20 02:44:07;;;;;;;11.50;2.40;;;;;;;;;;5113374;28;20030;-68
2021/08/20 02:46:33;;;;;;;9.07;3.03;;;;;;;;;;5110526;28;20027;-68
2021/08/20 02:48:59;;;;;;;8.02;2.75;;;;;;;;;;5113131;28;20504;-68
2021/08/20 02:51:25;;;;;;;10.13;2.38;;;;;;;;;;5113343;28;20473;-67
2021/08/20 02:53:51;;;;;;;11.85;2.72;;;;;;;;;;5091728;28;20024;-68
2021/08/20 02:56:17;;;;;;;12.32;4.03;;;;;;;;;;5089350;28;20020;-68
2021/08/20 02:58:43;;;;;;;11.95;5.15;;;;;;;;;;5092663;28;20313;-68
2021/08/20 03:01:09;;;;;;;15.02;6.53;;;;;;;;;;5092828;28;20024;-68
2021/08/20 03:03:35;;;;;;;12.20;6.65;;;;;;;;;;5074165;28;20118;-68
2021/08/20 03:06:01;;;;;;;13.50;6.95;;;;;;;;;;5089816;28;20285;-68
2021/08/20 03:08:27;;;;;;;16.65;7.55;;;;;;;;;;5092528;28;20028;-68
2021/08/20 03:10:53;;;;;;;21.80;8.52;;;;;;;;;;5092289;28;20078;-68
2021/08/20 03:13:19;;;;;;;17.35;9.13;;;;;;;;;;5074416;28;20085;-68
2021/08/20 03:15:45;;;;;;;18.73;9.30;;;;;;;;;;5090966;28;20043;-67
2021/08/20 03:18:11;;;;;;;23.88;9.65;;;;;;;;;;5091420;28;20029;-68
2021/08/20 03:20:37;;;;;;;19.77;8.55;;;;;;;;;;5091956;28;20051;-68
2021/08/20 03:23:03;;;;;;;17.50;7.82;;;;;;;;;;5092296;28;20506;-68
2021/08/20 03:25:30;;;;;;;21.58;8.45;;;;;;;;;;5092106;28;20016;-68
2021/08/20 03:27:56;;;;;;;14.88;7.47;;;;;;;;;;5089386;28;20016;-68
2021/08/20 03:30:22;;;;;;;27.05;10.77;;;;;;;;;;5092001;28;20035;-68
2021/08/20 03:32:48;;;;;;;29.83;11.93;;;;;;;;;;5092136;28;20024;-68
2021/08/20 03:35:14;;;;;;;23.58;11.90;;;;;;;;;;5090685;28;20031;-68
2021/08/20 03:37:41;;;;;;;26.35;13.65;;;;;;;;;;5094637;28;20047;-68
2021/08/20 03:40:07;;;;;;;23.33;13.02;;;;;;;;;;5093957;28;20118;-68
2021/08/20 03:42:33;;;;;;;28.02;13.35;;;;;;;;;;5112357;28;20103;-68
2021/08/20 03:44:59;;;;;;;25.67;11.43;;;;;;;;;;5112120;28;20450;-68
2021/08/20 03:47:25;;;;;;;22.35;9.00;;;;;;;;;;5109531;28;20107;-68
2021/08/20 03:49:51;;;;;;;17.63;6.70;;;;;;;;;;5111742;28;20058;-68
2021/08/20 03:52:17;;;;;;;21.27;7.70;;;;;;;;;;5112306;28;20034;-68
2021/08/20 03:54:43;;;;;;;23.13;7.35;;;;;;;;;;5100408;28;20034;-68
2021/08/20 03:57:10;;;;;;;21.88;7.53;;;;;;;;;;5088823;28;20028;-68
2021/08/20 03:59:36;;;;;;;18.80;6.30;;;;;;;;;;5091350;28;20024;-68
2021/08/20 04:02:03;;;;;;;22.17;5.82;;;;;;;;;;5090606;28;20024;-68
2021/08/20 04:04:29;;;;;;;28.48;6.97;;;;;;;;;;5091572;28;20512;-68
2021/08/20 04:06:55;;;;;;;18.13;6.15;;;;;;;;;;5087917;28;20024;-67
2021/08/20 04:09:21;;;;;;;23.38;6.47;;;;;;;;;;5091250;28;20088;-67
2021/08/20 04:11:47;;;;;;;22.10;6.43;;;;;;;;;;5089454;28;20580;-67
2021/08/20 04:14:13;;;;;;;18.27;5.70;;;;;;;;;;5091284;28;20039;-68
2021/08/20 04:16:40;;;;;;;20.92;5.38;;;;;;;;;;5088407;28;20490;-67
2021/08/20 04:19:06;;;;;;;14.75;5.90;;;;;;;;;;5091026;28;20453;-68
2021/08/20 04:21:32;;;;;;;21.42;5.93;;;;;;;;;;5091193;28;20024;-68
2021/08/20 04:23:59;;;;;;;19.67;5.72;;;;;;;;;;5091164;28;20386;-68
2021/08/20 04:26:25;;;;;;;20.45;5.20;;;;;;;;;;5088379;28;20039;-68
2021/08/20 04:28:51;;;;;;;18.63;5.07;;;;;;;;;;5091163;28;20031;-67
2021/08/20 04:31:18;;;;;;;17.90;4.40;;;;;;;;;;5091290;28;20024;-68
2021/08/20 04:33:44;;;;;;;14.57;4.00;;;;;;;;;;5091099;28;20444;-67
2021/08/20 04:36:11;;;;;;;12.32;3.80;;;;;;;;;;5087997;28;20036;-67
2021/08/20 04:38:40;;;;;;;13.98;3.97;;;;;;;;;;5104318;28;20138;-67
2021/08/20 04:41:07;;;;;;;12.55;3.72;;;;;;;;;;5111268;28;20019;-67
2021/08/20 04:43:33;;;;;;;17.90;4.15;;;;;;;;;;5111456;28;20088;-67
2021/08/20 04:45:59;;;;;;;13.60;4.25;;;;;;;;;;5108305;28;20012;-67
2021/08/20 04:48:25;;;;;;;15.88;4.90;;;;;;;;;;5111368;28;20108;-68
2021/08/20 04:50:52;;;;;;;15.45;4.63;;;;;;;;;;5111100;28;20050;-67
2021/08/20 04:53:22;;;;;;;17.23;5.00;;;;;;;;;;5093033;28;20051;-68
2021/08/20 04:55:48;;;;;;;19.58;4.45;;;;;;;;;;5088657;28;20067;-67
2021/08/20 04:58:14;;;;;;;13.32;4.75;;;;;;;;;;5090183;28;20031;-68
2021/08/20 05:00:45;;;;;;;12.60;3.90;;;;;;;;;;5090498;28;20020;-68
2021/08/20 05:03:11;;;;;;;15.38;5.20;;;;;;;;;;5072228;28;20085;-68
2021/08/20 05:05:37;;;;;;;15.52;4.68;;;;;;;;;;5089673;28;20027;-68
2021/08/20 05:08:04;;;;;;;15.85;4.78;;;;;;;;;;5089019;28;20028;-67
2021/08/20 05:10:31;;;;;;;15.45;5.82;;;;;;;;;;5090559;28;20028;-68
2021/08/20 05:12:57;;;;;;;18.38;5.22;;;;;;;;;;5090783;28;20393;-68
2021/08/20 05:15:26;;;;;;;20.33;5.57;;;;;;;;;;5090771;28;20016;-67
2021/08/20 05:17:52;;;;;;;17.02;5.18;;;;;;;;;;5087993;28;20032;-67
2021/08/20 05:20:19;;;;;;;14.07;5.13;;;;;;;;;;5094389;28;20063;-68
2021/08/20 05:22:45;;;;;;;22.55;6.53;;;;;;;;;;5094666;28;20103;-68
2021/08/20 05:25:11;;;;;;;17.65;6.45;;;;;;;;;;5094456;28;20405;-68
2021/08/20 05:27:37;;;;;;;17.08;6.63;;;;;;;;;;5091772;28;20020;-68
2021/08/20 05:30:03;;;;;;;15.85;7.25;;;;;;;;;;5094548;28;20107;-68
2021/08/20 05:32:29;;;;;;;15.98;8.32;;;;;;;;;;5076341;28;20028;-68
2021/08/20 05:34:55;;;;;;;15.98;7.32;;;;;;;;;;5076225;28;20020;-68
2021/08/20 05:37:21;;;;;;;19.70;8.77;;;;;;;;;;5094419;28;20044;-68
2021/08/20 05:39:47;;;;;;;17.25;8.43;;;;;;;;;;5114663;28;20035;-68
2021/08/20 05:42:13;;;;;;;15.65;8.68;;;;;;;;;;5114883;28;20080;-68
2021/08/20 05:44:39;;;;;;;21.90;9.65;;;;;;;;;;5114524;28;20020;-68
2021/08/20 05:47:05;;;;;;;15.98;8.13;;;;;;;;;;5111909;28;20384;-68
2021/08/20 05:49:31;;;;;;;14.50;8.13;;;;;;;;;;5114242;28;20020;-68
2021/08/20 05:51:57;;;;;;;20.50;9.18;;;;;;;;;;5114536;28;20397;-68
2021/08/20 05:54:23;;;;;;;16.02;8.02;;;;;;;;;;5105641;28;20401;-68
2021/08/20 05:56:50;;;;;;;16.73;8.98;;;;;;;;;;5091103;28;20701;-68
2021/08/20 05:59:16;;;;;;;14.48;7.88;;;;;;;;;;5093985;28;20040;-68
2021/08/20 06:01:42;;;;;;;15.43;7.80;;;;;;;;;;5094042;28;20102;-68
2021/08/20 06:04:08;;;;;;;20.63;7.82;;;;;;;;;;5094187;28;20042;-68
2021/08/20 06:06:37;;;;;;;17.35;8.07;;;;;;;;;;5091082;28;20020;-68
2021/08/20 06:09:03;;;;;;;15.45;7.20;;;;;;;;;;5093676;28;20583;-68
2021/08/20 06:11:29;;;;;;;17.38;7.70;;;;;;;;;;5093565;28;20490;-68
2021/08/20 06:13:55;;;;;;;15.30;7.07;;;;;;;;;;5093933;28;20017;-68
2021/08/20 06:16:21;;;;;;;17.35;6.95;;;;;;;;;;5090917;28;20107;-68
2021/08/20 06:18:47;;;;;;;25.77;8.88;;;;;;;;;;5093422;28;20027;-68
2021/08/20 06:21:13;;;;;;;18.80;8.40;;;;;;;;;;5093391;28;20047;-68
2021/08/20 06:23:40;;;;;;;14.23;8.13;;;;;;;;;;5093556;28;20579;-69
2021/08/20 06:26:06;;;;;;;16.00;8.13;;;;;;;;;;5090434;28;20008;-68
2021/08/20 06:28:32;;;;;;;18.50;8.77;;;;;;;;;;5093595;28;20027;-68
2021/08/20 06:31:03;;;;;;;21.52;11.23;;;;;;;;;;5092658;28;20032;-69
2021/08/20 06:33:29;;;;;;;20.40;11.20;;;;;;;;;;5093477;28;20028;-68
2021/08/20 06:35:55;;;;;;;20.90;10.60;;;;;;;;;;5090114;28;20068;-68
2021/08/20 06:38:21;;;;;;;24.23;11.48;;;;;;;;;;5104929;28;20055;-68
2021/08/20 06:40:47;;;;;;;20.15;11.30;;;;;;;;;;5113269;28;20050;-68
2021/08/20 06:43:13;;;;;;;23.63;12.75;;;;;;;;;;5113483;28;20481;-68
2021/08/20 06:45:40;;;;;;;21.13;11.18;;;;;;;;;;5112323;28;20401;-67
2021/08/20 06:48:06;;;;;;;16.52;11.57;;;;;;;;;;5112053;28;20509;-68
2021/08/20 06:50:32;;;;;;;18.30;10.82;;;;;;;;;;5113185;28;20024;-69
2021/08/20 06:52:58;;;;;;;19.58;9.82;;;;;;;;;;5113845;28;20042;-68
2021/08/20 06:55:24;;;;;;;14.93;9.18;;;;;;;;;;5096029;28;20481;-68
2021/08/20 06:57:50;;;;;;;19.70;10.60;;;;;;;;;;5090243;28;20020;-68
2021/08/20 07:00:17;;;;;;;17.80;9.75;;;;;;;;;;5092618;28;20027;-68
2021/08/20 07:02:47;;;;;;;23.88;10.65;;;;;;;;;;5092900;28;20020;-68
2021/08/20 07:05:13;;;;;;;21.48;10.73;;;;;;;;;;5092840;28;20016;-68
2021/08/20 07:07:40;;;;;;;19.20;10.57;;;;;;;;;;5088423;28;20028;-68
2021/08/20 07:10:15;;;;;;;20.20;11.07;;;;;;;;;;5092406;28;20557;-68
2021/08/20 07:12:42;;;;;;;25.83;11.48;;;;;;;;;;5092655;28;20068;-68
2021/08/20 07:15:09;;;;;;;18.73;10.45;;;;;;;;;;5092643;28;20490;-67
2021/08/20 07:17:35;;;;;;;19.65;10.07;;;;;;;;;;5090046;28;20486;-68
2021/08/20 07:20:02;;;;;;;15.30;9.82;;;;;;;;;;5092087;28;20028;-68
2021/08/20 07:22:28;;;;;;;16.92;10.23;;;;;;;;;;5092456;28;20321;-68
2021/08/20 07:24:54;;;;;;;24.58;11.15;;;;;;;;;;5092253;28;20474;-68
2021/08/20 07:27:20;;;;;;;19.40;10.77;;;;;;;;;;5089484;28;20039;-67
2021/08/20 07:29:47;;;;;;;22.15;13.15;;;;;;;;;;5090758;28;20195;-67
2021/08/20 07:32:13;;;;;;;25.90;13.88;;;;;;;;;;5091992;28;20028;-67
2021/08/20 07:34:39;;;;;;;25.48;13.60;;;;;;;;;;5092182;28;20032;-68
2021/08/20 07:37:06;;;;;;;24.20;13.38;;;;;;;;;;5090101;28;20055;-68
2021/08/20 07:39:32;;;;;;;24.17;13.38;;;;;;;;;;5112140;28;20056;-68
2021/08/20 07:41:59;;;;;;;25.33;13.05;;;;;;;;;;5094538;28;20019;-68
2021/08/20 07:44:25;;;;;;;18.75;12.52;;;;;;;;;;5112437;28;20480;-68
2021/08/20 07:46:51;;;;;;;19.27;12.32;;;;;;;;;;5109784;28;20016;-69
2021/08/20 07:49:18;;;;;;;24.52;14.35;;;;;;;;;;5093640;28;20110;-68
2021/08/20 07:51:44;;;;;;;22.30;14.98;;;;;;;;;;5112283;28;20019;-68
2021/08/20 07:54:10;;;;;;;28.70;14.73;;;;;;;;;;5090336;28;20083;-68
2021/08/20 07:56:36;;;;;;;29.05;16.05;;;;;;;;;;5070898;28;20024;-68
2021/08/20 07:59:02;;;;;;;25.60;16.85;;;;;;;;;;5091666;28;20036;-67
2021/08/20 08:01:28;;;;;;;31.35;18.30;;;;;;;;;;5091745;28;20028;-68
2021/08/20 08:03:57;;;;;;;32.58;19.45;;;;;;;;;;5091719;28;20069;-68
2021/08/20 08:06:27;;;;;;;30.95;20.92;;;;;;;;;;5070520;28;20035;-68
2021/08/20 08:08:53;;;;;;;31.90;20.92;;;;;;;;;;5091681;28;20493;-68
2021/08/20 08:11:20;;;;;;;29.98;19.35;;;;;;;;;;5091259;28;20555;-68
2021/08/20 08:13:46;;;;;;;27.85;19.38;;;;;;;;;;5091576;28;20020;-68
2021/08/20 08:16:12;;;;;;;32.45;19.52;;;;;;;;;;5088949;28;20024;-68
2021/08/20 08:18:39;;;;;;;30.50;18.40;;;;;;;;;;5091518;28;20092;-68
2021/08/20 08:21:05;;;;;;;31.25;20.80;;;;;;;;;;5091255;28;20115;-68
2021/08/20 08:23:31;;;;;;;33.40;18.52;;;;;;;;;;5091352;28;20389;-68
2021/08/20 08:25:57;;;;;;;27.95;19.83;;;;;;;;;;5088311;28;20529;-68
2021/08/20 08:28:23;;;;;;;36.20;21.80;;;;;;;;;;5091715;28;20274;-68
2021/08/20 08:30:50;;;;;;;31.33;20.77;;;;;;;;;;5091248;28;20027;-68
2021/08/20 08:33:17;;;;;;;32.20;19.02;;;;;;;;;;5091374;28;20462;-68
2021/08/20 08:35:43;;;;;;;27.25;18.98;;;;;;;;;;5089484;28;20035;-68
2021/08/20 08:38:10;;;;;;;22.30;18.05;;;;;;;;;;5099691;28;20081;-68
2021/08/20 08:40:37;;;;;;;25.42;15.98;;;;;;;;;;5111061;28;20065;-68
2021/08/20 08:43:04;;;;;;;21.38;15.02;;;;;;;;;;5111638;28;20011;-68
2021/08/20 08:45:30;;;;;;;24.13;16.08;;;;;;;;;;5111392;28;20019;-68
2021/08/20 08:47:56;;;;;;;22.73;14.52;;;;;;;;;;5108761;28;20034;-68
2021/08/20 08:50:23;;;;;;;22.67;14.60;;;;;;;;;;5111197;28;20102;-68
2021/08/20 08:52:49;;;;;;;25.80;14.95;;;;;;;;;;5092506;28;20110;-68
2021/08/20 08:55:15;;;;;;;23.60;15.43;;;;;;;;;;5095639;28;20016;-68
2021/08/20 08:57:41;;;;;;;17.95;13.90;;;;;;;;;;5086809;28;20470;-67
2021/08/20 09:00:08;;;;;;;21.05;13.73;;;;;;;;;;5090663;28;20024;-67
2021/08/20 09:02:34;;;;;;;17.88;12.00;;;;;;;;;;5091021;28;20051;-68
2021/08/20 09:05:10;;;;;;;18.98;11.85;;;;;;;;;;5090872;28;20028;-67
2021/08/20 09:07:37;;;;;;;17.38;10.98;;;;;;;;;;5087952;28;20028;-68
2021/08/20 09:10:09;;;;;;;17.40;10.45;;;;;;;;;;5090711;28;20028;-68
2021/08/20 09:12:35;;;;;;;15.98;10.40;;;;;;;;;;5090884;28;20112;-68
2021/08/20 09:15:01;;;;;;;15.15;9.40;;;;;;;;;;5090902;28;20032;-69
2021/08/20 09:17:35;;;;;;;13.30;9.82;;;;;;;;;;5087951;28;20111;-70
2021/08/20 09:20:14;;;;;;;17.92;10.57;;;;;;;;;;5090545;28;20402;-70
2021/08/20 09:22:40;;;;;;;12.75;8.73;;;;;;;;;;5090780;28;20393;-70
2021/08/20 09:25:06;;;;;;;13.50;8.23;;;;;;;;;;5090946;28;20530;-69
2021/08/20 09:27:32;;;;;;;10.82;7.00;;;;;;;;;;5087502;28;20032;-71
2021/08/20 09:30:03;;;;;;;9.07;5.43;;;;;;;;;;5072306;28;20020;-72
2021/08/20 09:32:29;;;;;;;10.33;4.97;;;;;;;;;;5090964;28;20101;-73
2021/08/20 09:34:59;;;;;;;9.55;5.00;;;;;;;;;;5090575;28;20730;-73
2021/08/20 09:37:28;;;;;;;8.32;5.15;;;;;;;;;;5091119;28;20035;-73
2021/08/20 09:40:07;;;;;;;10.80;5.25;;;;;;;;;;5110488;28;20026;-73
2021/08/20 09:42:34;;;;;;;12.55;5.82;;;;;;;;;;5110839;28;20046;-73
2021/08/20 09:45:18;;;;;;;13.02;6.40;;;;;;;;;;5110872;28;20024;-71
2021/08/20 09:47:45;;;;;;;13.45;6.82;;;;;;;;;;5108124;28;20016;-73
2021/08/20 09:50:11;;;;;;;10.07;6.53;;;;;;;;;;5110715;28;20020;-72
2021/08/20 09:52:37;;;;;;;8.93;5.63;;;;;;;;;;5110893;28;20481;-72
2021/08/20 09:55:04;;;;;;;11.52;5.38;;;;;;;;;;5096790;28;20066;-72
2021/08/20 09:57:32;;;;;;;12.13;6.28;;;;;;;;;;5086069;28;20119;-72
2021/08/20 09:59:58;;;;;;;10.98;5.80;;;;;;;;;;5090175;28;20055;-72
2021/08/20 10:02:26;;;;;;;10.65;5.57;;;;;;;;;;5090401;28;20082;-72
2021/08/20 10:04:59;;;;;;;12.65;5.82;;;;;;;;;;5090207;28;20170;-72
2021/08/20 10:07:28;;;;;;;9.50;5.13;;;;;;;;;;5089905;28;20020;-71
2021/08/20 10:09:55;;;;;;;8.32;5.10;;;;;;;;;;5093550;28;20115;-73
2021/08/20 10:12:22;;;;;;;9.05;4.65;;;;;;;;;;5092694;28;20040;-72
2021/08/20 10:14:49;;;;;;;11.30;4.97;;;;;;;;;;5093561;28;20026;-71
2021/08/20 10:17:16;;;;;;;10.10;5.40;;;;;;;;;;5090995;28;20028;-71
2021/08/20 10:19:42;;;;;;;10.80;5.45;;;;;;;;;;5093560;28;20390;-72
2021/08/20 10:22:09;;;;;;;15.18;7.35;;;;;;;;;;5093759;28;20024;-71
2021/08/20 10:24:35;;;;;;;12.63;8.02;;;;;;;;;;5092151;28;20024;-71
2021/08/20 10:27:05;;;;;;;12.60;7.05;;;;;;;;;;5090943;28;20031;-71
2021/08/20 10:29:31;;;;;;;10.80;6.95;;;;;;;;;;5093281;28;20106;-71
2021/08/20 10:31:58;;;;;;;12.25;6.70;;;;;;;;;;5093496;28;20027;-70
2021/08/20 10:34:30;;;;;;;15.95;7.32;;;;;;;;;;5093500;28;20020;-70
2021/08/20 10:37:05;;;;;;;13.13;7.70;;;;;;;;;;5090480;28;20139;-70
2021/08/20 10:39:31;;;;;;;12.65;7.07;;;;;;;;;;5093064;28;20108;-70
2021/08/20 10:42:04;;;;;;;12.40;6.43;;;;;;;;;;5093114;28;20024;-71
2021/08/20 10:44:34;;;;;;;12.43;7.22;;;;;;;;;;5099352;28;20508;-70
2021/08/20 10:47:00;;;;;;;14.77;7.25;;;;;;;;;;5110641;28;20045;-71
2021/08/20 10:49:26;;;;;;;10.90;6.45;;;;;;;;;;5113381;28;20122;-70
2021/08/20 10:51:53;;;;;;;13.52;7.65;;;;;;;;;;5113465;28;20022;-70
2021/08/20 10:54:42;;;;;;;16.50;8.02;;;;;;;;;;5105331;28;20406;-70
2021/08/20 10:57:28;;;;;;;15.55;6.32;;;;;;;;;;5090077;28;20493;-69
2021/08/20 10:59:55;;;;;;;14.52;5.90;;;;;;;;;;5051244;28;20086;-69
2021/08/20 11:02:21;;;;;;;10.32;6.35;;;;;;;;;;5092918;28;20028;-71
2021/08/20 11:04:57;;;;;;;10.82;5.22;;;;;;;;;;5092580;28;20558;-70
2021/08/20 11:07:35;;;;;;;9.98;5.65;;;;;;;;;;5090069;28;20134;-70
2021/08/20 11:10:01;;;;;;;9.43;5.45;;;;;;;;;;5092389;28;20028;-70
2021/08/20 11:12:36;;;;;;;11.70;6.72;;;;;;;;;;5092827;28;20027;-71
2021/08/20 11:15:31;;;;;;;10.50;5.30;;;;;;;;;;5092734;28;20024;-71
2021/08/20 11:18:01;;;;;;;11.57;5.80;;;;;;;;;;5072072;28;20046;-70
2021/08/20 11:20:28;;;;;;;11.07;5.93;;;;;;;;;;5092074;28;20027;-70
2021/08/20 11:23:13;;;;;;;8.43;5.13;;;;;;;;;;5092417;28;20016;-70
2021/08/20 11:25:52;;;;;;;12.13;6.43;;;;;;;;;;5091198;28;20394;-71
2021/08/20 11:28:20;;;;;;;9.88;5.47;;;;;;;;;;5092214;28;20043;-70
2021/08/20 11:30:58;;;;;;;7.95;5.00;;;;;;;;;;5092018;28;20024;-70
2021/08/20 11:33:25;;;;;;;12.50;5.90;;;;;;;;;;5092289;28;20517;-72
2021/08/20 11:35:53;;;;;;;11.85;5.50;;;;;;;;;;5089269;28;20040;-69
2021/08/20 11:38:30;;;;;;;9.60;5.57;;;;;;;;;;5103482;28;20100;-72
2021/08/20 11:41:02;;;;;;;10.32;5.25;;;;;;;;;;5112033;28;20397;-72
2021/08/20 11:43:28;;;;;;;12.88;5.43;;;;;;;;;;5112493;28;20103;-72
2021/08/20 11:45:59;;;;;;;9.25;4.82;;;;;;;;;;5109520;28;20070;-73
2021/08/20 11:48:25;;;;;;;10.15;4.93;;;;;;;;;;5112404;28;20024;-72
2021/08/20 11:50:51;;;;;;;10.85;5.28;;;;;;;;;;5111889;28;20507;-72
2021/08/20 11:53:21;;;;;;;14.07;4.70;;;;;;;;;;5112395;28;20038;-72
2021/08/20 11:55:47;;;;;;;8.93;4.78;;;;;;;;;;5089751;28;20031;-72
2021/08/20 11:58:29;;;;;;;10.35;4.63;;;;;;;;;;5091063;28;20405;-71
2021/08/20 12:00:56;;;;;;;9.90;4.18;;;;;;;;;;5091354;28;20051;-70
2021/08/20 12:03:22;;;;;;;8.70;4.25;;;;;;;;;;5091831;28;20531;-70
2021/08/20 12:05:48;;;;;;;10.10;4.20;;;;;;;;;;5089385;28;20384;-70
2021/08/20 12:08:18;;;;;;;12.52;4.90;;;;;;;;;;5091365;28;20025;-71
2021/08/20 12:10:46;;;;;;;9.15;4.57;;;;;;;;;;5091451;28;20549;-72
2021/08/20 12:13:13;;;;;;;9.77;4.65;;;;;;;;;;5091668;28;20077;-71
2021/08/20 12:15:39;;;;;;;9.73;5.07;;;;;;;;;;5090532;28;20016;-69
2021/08/20 12:18:21;;;;;;;9.73;4.35;;;;;;;;;;5089824;28;20073;-71
2021/08/20 12:20:48;;;;;;;9.27;4.32;;;;;;;;;;5090952;28;20026;-71
2021/08/20 12:23:14;;;;;;;10.10;4.68;;;;;;;;;;5091232;28;20031;-70
2021/08/20 12:25:40;;;;;;;9.65;5.10;;;;;;;;;;5089881;28;20020;-70
2021/08/20 12:28:11;;;;;;;10.43;5.78;;;;;;;;;;5089179;28;20024;-71
2021/08/20 12:30:37;;;;;;;15.30;6.15;;;;;;;;;;5089787;28;20024;-70
2021/08/20 12:33:04;;;;;;;10.45;5.80;;;;;;;;;;5091375;28;20482;-70
2021/08/20 12:35:30;;;;;;;10.27;4.50;;;;;;;;;;5091256;28;20026;-70
2021/08/20 12:38:00;;;;;;;10.27;4.88;;;;;;;;;;5090513;28;20067;-70
2021/08/20 12:40:33;;;;;;;10.18;5.57;;;;;;;;;;5111250;28;20027;-70
2021/08/20 12:42:59;;;;;;;10.35;5.57;;;;;;;;;;5111614;28;20047;-69
2021/08/20 12:45:25;;;;;;;12.95;5.13;;;;;;;;;;5111517;28;20110;-70
2021/08/20 12:48:00;;;;;;;8.52;5.18;;;;;;;;;;5108606;28;20020;-69
2021/08/20 12:50:26;;;;;;;11.27;5.75;;;;;;;;;;5092839;28;20233;-69
2021/08/20 12:53:00;;;;;;;9.05;5.00;;;;;;;;;;5111608;28;20589;-70
2021/08/20 12:55:26;;;;;;;10.80;5.18;;;;;;;;;;5093872;28;20020;-70
2021/08/20 12:57:53;;;;;;;11.23;5.97;;;;;;;;;;5088071;28;20497;-68
2021/08/20 13:00:19;;;;;;;7.00;4.18;;;;;;;;;;5090680;28;20024;-69
2021/08/20 13:02:46;;;;;;;10.73;5.47;;;;;;;;;;5091021;28;20059;-69
2021/08/20 13:05:12;;;;;;;9.55;4.28;;;;;;;;;;5091046;28;20511;-68
2021/08/20 13:07:38;;;;;;;10.05;4.55;;;;;;;;;;5086626;28;20059;-70
2021/08/20 13:10:04;;;;;;;11.23;5.53;;;;;;;;;;5090682;28;20035;-69
2021/08/20 13:12:30;;;;;;;9.25;4.50;;;;;;;;;;5090532;28;20023;-70
2021/08/20 13:14:56;;;;;;;10.98;5.32;;;;;;;;;;5088629;28;20040;-69
2021/08/20 13:17:22;;;;;;;8.70;5.35;;;;;;;;;;5088000;28;20051;-69
2021/08/20 13:19:50;;;;;;;10.05;4.40;;;;;;;;;;5090269;28;20028;-69
2021/08/20 13:22:16;;;;;;;12.13;5.47;;;;;;;;;;5089275;28;20035;-68
2021/08/20 13:24:42;;;;;;;10.35;4.72;;;;;;;;;;5090688;28;20016;-69
2021/08/20 13:27:08;;;;;;;10.70;4.90;;;;;;;;;;5087901;28;20469;-69
2021/08/20 13:29:35;;;;;;;8.02;4.80;;;;;;;;;;5072400;28;20398;-70
2021/08/20 13:32:01;;;;;;;8.43;4.63;;;;;;;;;;5090321;28;20400;-70
2021/08/20 13:34:27;;;;;;;9.02;4.90;;;;;;;;;;5090610;28;20044;-69
2021/08/20 13:36:53;;;;;;;15.48;4.78;;;;;;;;;;5087949;28;20150;-69
2021/08/20 13:39:19;;;;;;;9.48;5.55;;;;;;;;;;5110861;28;20662;-69
2021/08/20 13:41:45;;;;;;;14.05;5.78;;;;;;;;;;5114571;28;20393;-69
2021/08/20 13:44:11;;;;;;;8.73;4.57;;;;;;;;;;5114778;28;20050;-69
2021/08/20 13:46:38;;;;;;;12.38;5.40;;;;;;;;;;5111899;28;20024;-67
2021/08/20 13:49:08;;;;;;;12.07;5.25;;;;;;;;;;5114669;28;20031;-69
2021/08/20 13:51:34;;;;;;;11.95;4.93;;;;;;;;;;5096235;28;20405;-69
2021/08/20 13:54:01;;;;;;;10.63;5.70;;;;;;;;;;5108920;28;20124;-69
2021/08/20 13:56:28;;;;;;;11.82;4.85;;;;;;;;;;5090894;28;20046;-69
2021/08/20 13:58:54;;;;;;;9.48;5.75;;;;;;;;;;5094114;28;20031;-68
2021/08/20 14:01:21;;;;;;;12.98;6.55;;;;;;;;;;5093871;28;20032;-69
2021/08/20 14:03:47;;;;;;;11.95;5.53;;;;;;;;;;5094063;28;20028;-69
2021/08/20 14:06:13;;;;;;;13.77;5.80;;;;;;;;;;5091202;28;20043;-70
2021/08/20 14:08:39;;;;;;;11.80;5.93;;;;;;;;;;5094059;28;20500;-70
2021/08/20 14:11:06;;;;;;;11.73;5.63;;;;;;;;;;5093645;28;20456;-69
2021/08/20 14:13:32;;;;;;;14.02;5.05;;;;;;;;;;5092649;28;20474;-69
2021/08/20 14:15:58;;;;;;;10.75;6.53;;;;;;;;;;5090970;28;20024;-69
2021/08/20 14:18:24;;;;;;;9.55;6.03;;;;;;;;;;5093934;28;20028;-68
2021/08/20 14:20:50;;;;;;;12.57;5.90;;;;;;;;;;5093149;28;20035;-69
2021/08/20 14:23:16;;;;;;;15.35;6.38;;;;;;;;;;5093820;28;20530;-69
2021/08/20 14:25:43;;;;;;;12.73;6.82;;;;;;;;;;5092047;28;20023;-69
2021/08/20 14:28:09;;;;;;;11.65;6.13;;;;;;;;;;5092518;28;20016;-69